sensor_id;sensor_type;location;lat;lon;timestamp;P1;durP1;ratioP1;P2;durP2;ratioP2
11123;SDS011;5616;42.692;23.312;2024-02-15T00:02:13;13.80;;;8.15;;
11123;SDS011;5616;42.692;23.312;2024-02-15T00:04:38;16.15;;;9.90;;
11123;SDS011;5616;42.692;23.312;2024-02-15T00:07:04;19.42;;;11.15;;
11123;SDS011;5616;42.692;23.312;2024-02-15T00:09:29;15.55;;;10.02;;
11123;SDS011;5616;42.692;23.312;2024-02-15T00:11:55;15.82;;;9.40;;
11123;SDS011;5616;42.692;23.312;2024-02-15T00:14:21;13.88;;;8.55;;
11123;SDS011;5616;42.692;23.312;2024-02-15T00:16:46;17.52;;;9.10;;
11123;SDS011;5616;42.692;23.312;2024-02-15T00:19:12;14.32;;;8.52;;
11123;SDS011;5616;42.692;23.312;2024-02-15T00:21:42;16.40;;;9.07;;
11123;SDS011;5616;42.692;23.312;2024-02-15T00:24:08;15.80;;;9.30;;
11123;SDS011;5616;42.692;23.312;2024-02-15T00:26:35;14.82;;;8.40;;
11123;SDS011;5616;42.692;23.312;2024-02-15T00:29:01;16.73;;;8.68;;
11123;SDS011;5616;42.692;23.312;2024-02-15T00:31:26;18.30;;;9.75;;
11123;SDS011;5616;42.692;23.312;2024-02-15T00:33:52;15.00;;;8.93;;
11123;SDS011;5616;42.692;23.312;2024-02-15T00:38:44;15.70;;;8.30;;
11123;SDS011;5616;42.692;23.312;2024-02-15T00:41:10;11.95;;;7.82;;
11123;SDS011;5616;42.692;23.312;2024-02-15T00:43:35;14.35;;;8.25;;
11123;SDS011;5616;42.692;23.312;2024-02-15T00:46:01;15.77;;;8.90;;
11123;SDS011;5616;42.692;23.312;2024-02-15T00:48:27;15.43;;;9.93;;
11123;SDS011;5616;42.692;23.312;2024-02-15T00:50:55;11.32;;;8.20;;
11123;SDS011;5616;42.692;23.312;2024-02-15T00:55:46;14.52;;;8.05;;
11123;SDS011;5616;42.692;23.312;2024-02-15T00:58:12;17.10;;;8.48;;
11123;SDS011;5616;42.692;23.312;2024-02-15T01:00:37;16.60;;;9.50;;
11123;SDS011;5616;42.692;23.312;2024-02-15T01:03:03;13.70;;;8.23;;
11123;SDS011;5616;42.692;23.312;2024-02-15T01:05:29;17.48;;;8.40;;
11123;SDS011;5616;42.692;23.312;2024-02-15T01:07:55;19.17;;;9.27;;
11123;SDS011;5616;42.692;23.312;2024-02-15T01:10:21;12.15;;;8.73;;
11123;SDS011;5616;42.692;23.312;2024-02-15T01:12:49;17.77;;;9.07;;
11123;SDS011;5616;42.692;23.312;2024-02-15T01:15:14;13.48;;;8.48;;
11123;SDS011;5616;42.692;23.312;2024-02-15T01:17:43;17.40;;;9.60;;
11123;SDS011;5616;42.692;23.312;2024-02-15T01:20:09;17.50;;;8.48;;
11123;SDS011;5616;42.692;23.312;2024-02-15T01:22:35;14.10;;;8.50;;
11123;SDS011;5616;42.692;23.312;2024-02-15T01:25:01;15.10;;;9.63;;
11123;SDS011;5616;42.692;23.312;2024-02-15T01:27:27;15.13;;;8.57;;
11123;SDS011;5616;42.692;23.312;2024-02-15T01:29:58;15.52;;;8.82;;
11123;SDS011;5616;42.692;23.312;2024-02-15T01:32:24;13.65;;;8.25;;
11123;SDS011;5616;42.692;23.312;2024-02-15T01:34:51;13.55;;;8.55;;
11123;SDS011;5616;42.692;23.312;2024-02-15T01:37:19;13.70;;;8.60;;
11123;SDS011;5616;42.692;23.312;2024-02-15T01:39:45;15.63;;;8.40;;
11123;SDS011;5616;42.692;23.312;2024-02-15T01:42:11;15.30;;;8.10;;
11123;SDS011;5616;42.692;23.312;2024-02-15T01:44:39;14.95;;;8.65;;
11123;SDS011;5616;42.692;23.312;2024-02-15T01:47:06;16.67;;;9.50;;
11123;SDS011;5616;42.692;23.312;2024-02-15T01:49:32;16.08;;;7.65;;
11123;SDS011;5616;42.692;23.312;2024-02-15T01:51:58;18.27;;;8.75;;
11123;SDS011;5616;42.692;23.312;2024-02-15T01:54:26;13.85;;;8.07;;
11123;SDS011;5616;42.692;23.312;2024-02-15T01:59:19;17.08;;;8.82;;
11123;SDS011;5616;42.692;23.312;2024-02-15T02:01:48;15.00;;;8.77;;
11123;SDS011;5616;42.692;23.312;2024-02-15T02:04:14;17.35;;;7.90;;
11123;SDS011;5616;42.692;23.312;2024-02-15T02:06:40;16.40;;;8.38;;
11123;SDS011;5616;42.692;23.312;2024-02-15T02:09:06;16.85;;;8.93;;
11123;SDS011;5616;42.692;23.312;2024-02-15T02:11:35;16.25;;;9.82;;
11123;SDS011;5616;42.692;23.312;2024-02-15T02:14:01;15.73;;;9.30;;
11123;SDS011;5616;42.692;23.312;2024-02-15T02:16:30;14.55;;;9.68;;
11123;SDS011;5616;42.692;23.312;2024-02-15T02:19:04;18.23;;;9.48;;
11123;SDS011;5616;42.692;23.312;2024-02-15T02:21:37;16.95;;;9.00;;
11123;SDS011;5616;42.692;23.312;2024-02-15T02:24:06;15.70;;;9.18;;
11123;SDS011;5616;42.692;23.312;2024-02-15T02:26:39;15.45;;;8.25;;
11123;SDS011;5616;42.692;23.312;2024-02-15T02:29:05;16.38;;;9.45;;
11123;SDS011;5616;42.692;23.312;2024-02-15T02:31:35;19.60;;;9.15;;
11123;SDS011;5616;42.692;23.312;2024-02-15T02:34:01;18.23;;;9.60;;
11123;SDS011;5616;42.692;23.312;2024-02-15T02:36:27;17.65;;;9.63;;
11123;SDS011;5616;42.692;23.312;2024-02-15T02:38:54;17.95;;;8.95;;
11123;SDS011;5616;42.692;23.312;2024-02-15T02:41:20;20.55;;;9.48;;
11123;SDS011;5616;42.692;23.312;2024-02-15T02:43:46;14.98;;;9.38;;
11123;SDS011;5616;42.692;23.312;2024-02-15T02:46:12;24.02;;;11.38;;
11123;SDS011;5616;42.692;23.312;2024-02-15T02:48:38;15.40;;;9.13;;
11123;SDS011;5616;42.692;23.312;2024-02-15T02:51:04;18.25;;;10.10;;
11123;SDS011;5616;42.692;23.312;2024-02-15T02:53:31;18.23;;;9.98;;
11123;SDS011;5616;42.692;23.312;2024-02-15T02:55:57;17.13;;;9.25;;
11123;SDS011;5616;42.692;23.312;2024-02-15T02:58:23;17.27;;;9.70;;
11123;SDS011;5616;42.692;23.312;2024-02-15T03:00:48;17.67;;;9.05;;
11123;SDS011;5616;42.692;23.312;2024-02-15T03:03:15;16.83;;;8.88;;
11123;SDS011;5616;42.692;23.312;2024-02-15T03:05:41;22.75;;;9.93;;
11123;SDS011;5616;42.692;23.312;2024-02-15T03:08:11;19.15;;;9.75;;
11123;SDS011;5616;42.692;23.312;2024-02-15T03:10:38;20.52;;;11.35;;
11123;SDS011;5616;42.692;23.312;2024-02-15T03:13:05;21.42;;;10.93;;
11123;SDS011;5616;42.692;23.312;2024-02-15T03:15:30;16.42;;;9.65;;
11123;SDS011;5616;42.692;23.312;2024-02-15T03:17:58;17.42;;;10.10;;
11123;SDS011;5616;42.692;23.312;2024-02-15T03:20:23;19.02;;;10.25;;
11123;SDS011;5616;42.692;23.312;2024-02-15T03:22:53;20.67;;;9.98;;
11123;SDS011;5616;42.692;23.312;2024-02-15T03:25:20;20.00;;;10.13;;
11123;SDS011;5616;42.692;23.312;2024-02-15T03:27:48;21.25;;;9.65;;
11123;SDS011;5616;42.692;23.312;2024-02-15T03:30:17;22.85;;;11.82;;
11123;SDS011;5616;42.692;23.312;2024-02-15T03:32:44;18.63;;;10.45;;
11123;SDS011;5616;42.692;23.312;2024-02-15T03:35:10;21.27;;;10.55;;
11123;SDS011;5616;42.692;23.312;2024-02-15T03:37:39;21.00;;;10.95;;
11123;SDS011;5616;42.692;23.312;2024-02-15T03:40:05;20.25;;;10.43;;
11123;SDS011;5616;42.692;23.312;2024-02-15T03:42:31;20.30;;;10.65;;
11123;SDS011;5616;42.692;23.312;2024-02-15T03:44:56;24.20;;;10.98;;
11123;SDS011;5616;42.692;23.312;2024-02-15T03:47:22;24.00;;;10.35;;
11123;SDS011;5616;42.692;23.312;2024-02-15T03:49:48;20.67;;;10.85;;
11123;SDS011;5616;42.692;23.312;2024-02-15T03:52:13;19.85;;;11.15;;
11123;SDS011;5616;42.692;23.312;2024-02-15T03:54:39;26.15;;;11.77;;
11123;SDS011;5616;42.692;23.312;2024-02-15T03:57:08;22.13;;;9.80;;
11123;SDS011;5616;42.692;23.312;2024-02-15T03:59:33;22.90;;;11.35;;
11123;SDS011;5616;42.692;23.312;2024-02-15T04:02:00;18.73;;;9.82;;
11123;SDS011;5616;42.692;23.312;2024-02-15T04:04:28;17.48;;;10.25;;
11123;SDS011;5616;42.692;23.312;2024-02-15T04:06:54;22.70;;;9.07;;
11123;SDS011;5616;42.692;23.312;2024-02-15T04:09:19;21.40;;;9.63;;
11123;SDS011;5616;42.692;23.312;2024-02-15T04:11:48;21.52;;;11.05;;
11123;SDS011;5616;42.692;23.312;2024-02-15T04:14:18;23.85;;;10.10;;
11123;SDS011;5616;42.692;23.312;2024-02-15T04:16:46;19.38;;;10.27;;
11123;SDS011;5616;42.692;23.312;2024-02-15T04:19:11;21.13;;;10.65;;
11123;SDS011;5616;42.692;23.312;2024-02-15T04:21:38;20.48;;;9.60;;
11123;SDS011;5616;42.692;23.312;2024-02-15T04:24:05;17.83;;;9.80;;
11123;SDS011;5616;42.692;23.312;2024-02-15T04:26:31;22.55;;;9.98;;
11123;SDS011;5616;42.692;23.312;2024-02-15T04:28:58;19.10;;;10.32;;
11123;SDS011;5616;42.692;23.312;2024-02-15T04:31:24;20.23;;;9.20;;
11123;SDS011;5616;42.692;23.312;2024-02-15T04:33:56;19.70;;;10.90;;
11123;SDS011;5616;42.692;23.312;2024-02-15T04:36:22;19.17;;;9.18;;
11123;SDS011;5616;42.692;23.312;2024-02-15T04:38:51;20.20;;;9.88;;
11123;SDS011;5616;42.692;23.312;2024-02-15T04:41:17;21.10;;;10.05;;
11123;SDS011;5616;42.692;23.312;2024-02-15T04:43:47;21.73;;;10.98;;
11123;SDS011;5616;42.692;23.312;2024-02-15T04:46:13;21.25;;;9.95;;
11123;SDS011;5616;42.692;23.312;2024-02-15T04:48:39;21.92;;;10.00;;
11123;SDS011;5616;42.692;23.312;2024-02-15T04:51:07;20.17;;;9.90;;
11123;SDS011;5616;42.692;23.312;2024-02-15T04:53:33;22.13;;;10.00;;
11123;SDS011;5616;42.692;23.312;2024-02-15T04:55:58;29.63;;;11.95;;
11123;SDS011;5616;42.692;23.312;2024-02-15T04:58:26;21.13;;;10.88;;
11123;SDS011;5616;42.692;23.312;2024-02-15T05:00:54;20.08;;;9.88;;
11123;SDS011;5616;42.692;23.312;2024-02-15T05:03:24;23.75;;;10.55;;
11123;SDS011;5616;42.692;23.312;2024-02-15T05:05:49;26.67;;;10.52;;
11123;SDS011;5616;42.692;23.312;2024-02-15T05:08:15;21.20;;;10.20;;
11123;SDS011;5616;42.692;23.312;2024-02-15T05:10:41;20.20;;;10.38;;
11123;SDS011;5616;42.692;23.312;2024-02-15T05:13:06;23.60;;;10.38;;
11123;SDS011;5616;42.692;23.312;2024-02-15T05:15:33;21.38;;;10.75;;
11123;SDS011;5616;42.692;23.312;2024-02-15T05:17:58;19.27;;;9.70;;
11123;SDS011;5616;42.692;23.312;2024-02-15T05:20:26;19.52;;;10.32;;
11123;SDS011;5616;42.692;23.312;2024-02-15T05:22:52;20.60;;;11.18;;
11123;SDS011;5616;42.692;23.312;2024-02-15T05:25:21;27.88;;;11.93;;
11123;SDS011;5616;42.692;23.312;2024-02-15T05:27:51;22.15;;;10.70;;
11123;SDS011;5616;42.692;23.312;2024-02-15T05:30:18;25.33;;;11.75;;
11123;SDS011;5616;42.692;23.312;2024-02-15T05:32:44;29.50;;;10.95;;
11123;SDS011;5616;42.692;23.312;2024-02-15T05:35:10;23.58;;;10.20;;
11123;SDS011;5616;42.692;23.312;2024-02-15T05:37:37;21.70;;;10.35;;
11123;SDS011;5616;42.692;23.312;2024-02-15T05:40:03;20.33;;;9.73;;
11123;SDS011;5616;42.692;23.312;2024-02-15T05:42:29;27.38;;;11.18;;
11123;SDS011;5616;42.692;23.312;2024-02-15T05:44:55;26.75;;;10.82;;
11123;SDS011;5616;42.692;23.312;2024-02-15T05:47:39;23.40;;;10.55;;
11123;SDS011;5616;42.692;23.312;2024-02-15T05:50:05;24.40;;;11.43;;
11123;SDS011;5616;42.692;23.312;2024-02-15T05:52:32;20.38;;;11.07;;
11123;SDS011;5616;42.692;23.312;2024-02-15T05:54:57;23.38;;;11.13;;
11123;SDS011;5616;42.692;23.312;2024-02-15T05:57:23;22.17;;;10.05;;
11123;SDS011;5616;42.692;23.312;2024-02-15T05:59:48;20.65;;;9.70;;
11123;SDS011;5616;42.692;23.312;2024-02-15T06:02:14;22.73;;;10.18;;
11123;SDS011;5616;42.692;23.312;2024-02-15T06:04:40;26.25;;;10.88;;
11123;SDS011;5616;42.692;23.312;2024-02-15T06:07:06;32.03;;;11.10;;
11123;SDS011;5616;42.692;23.312;2024-02-15T06:09:34;23.17;;;10.95;;
11123;SDS011;5616;42.692;23.312;2024-02-15T06:12:02;23.98;;;10.23;;
11123;SDS011;5616;42.692;23.312;2024-02-15T06:14:27;25.83;;;11.73;;
11123;SDS011;5616;42.692;23.312;2024-02-15T06:16:53;23.77;;;11.85;;
11123;SDS011;5616;42.692;23.312;2024-02-15T06:19:20;24.83;;;10.98;;
11123;SDS011;5616;42.692;23.312;2024-02-15T06:21:45;22.58;;;9.90;;
11123;SDS011;5616;42.692;23.312;2024-02-15T06:24:12;22.70;;;10.20;;
11123;SDS011;5616;42.692;23.312;2024-02-15T06:26:37;21.05;;;10.45;;
11123;SDS011;5616;42.692;23.312;2024-02-15T06:31:48;20.58;;;10.02;;
11123;SDS011;5616;42.692;23.312;2024-02-15T06:34:31;20.95;;;10.70;;
11123;SDS011;5616;42.692;23.312;2024-02-15T06:37:38;19.15;;;9.35;;
11123;SDS011;5616;42.692;23.312;2024-02-15T06:40:23;28.27;;;11.68;;
11123;SDS011;5616;42.692;23.312;2024-02-15T06:42:48;23.98;;;11.35;;
11123;SDS011;5616;42.692;23.312;2024-02-15T06:45:14;25.13;;;10.52;;
11123;SDS011;5616;42.692;23.312;2024-02-15T06:47:43;21.02;;;10.77;;
11123;SDS011;5616;42.692;23.312;2024-02-15T06:50:10;26.25;;;11.00;;
11123;SDS011;5616;42.692;23.312;2024-02-15T06:52:37;21.77;;;9.35;;
11123;SDS011;5616;42.692;23.312;2024-02-15T06:55:03;21.08;;;9.23;;
11123;SDS011;5616;42.692;23.312;2024-02-15T06:57:33;22.75;;;10.23;;
11123;SDS011;5616;42.692;23.312;2024-02-15T07:00:01;21.70;;;10.00;;
11123;SDS011;5616;42.692;23.312;2024-02-15T07:02:33;22.13;;;10.50;;
11123;SDS011;5616;42.692;23.312;2024-02-15T07:04:58;25.02;;;10.63;;
11123;SDS011;5616;42.692;23.312;2024-02-15T07:07:24;20.50;;;9.75;;
11123;SDS011;5616;42.692;23.312;2024-02-15T07:09:50;26.95;;;9.85;;
11123;SDS011;5616;42.692;23.312;2024-02-15T07:12:16;28.92;;;9.77;;
11123;SDS011;5616;42.692;23.312;2024-02-15T07:14:41;24.40;;;10.88;;
11123;SDS011;5616;42.692;23.312;2024-02-15T07:17:07;23.63;;;9.77;;
11123;SDS011;5616;42.692;23.312;2024-02-15T07:19:33;22.13;;;10.55;;
11123;SDS011;5616;42.692;23.312;2024-02-15T07:22:01;21.48;;;10.07;;
11123;SDS011;5616;42.692;23.312;2024-02-15T07:24:27;22.38;;;10.02;;
11123;SDS011;5616;42.692;23.312;2024-02-15T07:26:53;24.20;;;11.23;;
11123;SDS011;5616;42.692;23.312;2024-02-15T07:29:21;22.10;;;9.68;;
11123;SDS011;5616;42.692;23.312;2024-02-15T07:31:48;20.60;;;10.25;;
11123;SDS011;5616;42.692;23.312;2024-02-15T07:34:14;23.40;;;9.10;;
11123;SDS011;5616;42.692;23.312;2024-02-15T07:36:41;21.48;;;9.73;;
11123;SDS011;5616;42.692;23.312;2024-02-15T07:39:08;19.45;;;10.57;;
11123;SDS011;5616;42.692;23.312;2024-02-15T07:41:40;21.70;;;9.63;;
11123;SDS011;5616;42.692;23.312;2024-02-15T07:44:05;17.02;;;9.65;;
11123;SDS011;5616;42.692;23.312;2024-02-15T07:46:31;20.48;;;9.80;;
11123;SDS011;5616;42.692;23.312;2024-02-15T07:48:57;19.67;;;10.40;;
11123;SDS011;5616;42.692;23.312;2024-02-15T07:51:23;25.48;;;9.65;;
11123;SDS011;5616;42.692;23.312;2024-02-15T07:53:49;17.40;;;8.05;;
11123;SDS011;5616;42.692;23.312;2024-02-15T07:56:15;20.60;;;8.00;;
11123;SDS011;5616;42.692;23.312;2024-02-15T07:58:42;19.38;;;10.02;;
11123;SDS011;5616;42.692;23.312;2024-02-15T08:01:12;20.00;;;10.00;;
11123;SDS011;5616;42.692;23.312;2024-02-15T08:06:07;21.67;;;9.52;;
11123;SDS011;5616;42.692;23.312;2024-02-15T08:08:34;21.85;;;9.38;;
11123;SDS011;5616;42.692;23.312;2024-02-15T08:11:02;21.80;;;9.68;;
11123;SDS011;5616;42.692;23.312;2024-02-15T08:13:28;17.45;;;8.60;;
11123;SDS011;5616;42.692;23.312;2024-02-15T08:15:54;18.70;;;9.52;;
11123;SDS011;5616;42.692;23.312;2024-02-15T08:18:20;28.88;;;8.95;;
11123;SDS011;5616;42.692;23.312;2024-02-15T08:20:46;19.58;;;9.48;;
11123;SDS011;5616;42.692;23.312;2024-02-15T08:23:12;19.10;;;9.13;;
11123;SDS011;5616;42.692;23.312;2024-02-15T08:25:40;19.10;;;8.23;;
11123;SDS011;5616;42.692;23.312;2024-02-15T08:28:08;20.52;;;9.65;;
11123;SDS011;5616;42.692;23.312;2024-02-15T08:30:34;24.48;;;9.43;;
11123;SDS011;5616;42.692;23.312;2024-02-15T08:32:59;20.52;;;9.57;;
11123;SDS011;5616;42.692;23.312;2024-02-15T08:35:25;18.80;;;8.57;;
11123;SDS011;5616;42.692;23.312;2024-02-15T08:37:50;20.73;;;10.57;;
11123;SDS011;5616;42.692;23.312;2024-02-15T08:40:17;21.35;;;9.85;;
11123;SDS011;5616;42.692;23.312;2024-02-15T08:42:49;19.75;;;9.93;;
11123;SDS011;5616;42.692;23.312;2024-02-15T08:45:15;20.88;;;9.20;;
11123;SDS011;5616;42.692;23.312;2024-02-15T08:47:42;19.40;;;8.27;;
11123;SDS011;5616;42.692;23.312;2024-02-15T08:50:08;22.02;;;10.38;;
11123;SDS011;5616;42.692;23.312;2024-02-15T08:52:35;15.82;;;8.15;;
11123;SDS011;5616;42.692;23.312;2024-02-15T08:55:05;21.70;;;8.77;;
11123;SDS011;5616;42.692;23.312;2024-02-15T08:57:34;16.40;;;8.15;;
11123;SDS011;5616;42.692;23.312;2024-02-15T09:00:04;17.90;;;9.02;;
11123;SDS011;5616;42.692;23.312;2024-02-15T09:02:38;14.25;;;7.20;;
11123;SDS011;5616;42.692;23.312;2024-02-15T09:05:14;16.75;;;7.95;;
11123;SDS011;5616;42.692;23.312;2024-02-15T09:07:43;22.88;;;8.70;;
11123;SDS011;5616;42.692;23.312;2024-02-15T09:10:12;17.27;;;8.70;;
11123;SDS011;5616;42.692;23.312;2024-02-15T09:12:39;19.52;;;9.85;;
11123;SDS011;5616;42.692;23.312;2024-02-15T09:15:06;19.30;;;9.20;;
11123;SDS011;5616;42.692;23.312;2024-02-15T09:17:33;21.00;;;8.55;;
11123;SDS011;5616;42.692;23.312;2024-02-15T09:20:13;15.80;;;7.95;;
11123;SDS011;5616;42.692;23.312;2024-02-15T09:22:50;19.30;;;8.15;;
11123;SDS011;5616;42.692;23.312;2024-02-15T09:25:17;14.73;;;7.65;;
11123;SDS011;5616;42.692;23.312;2024-02-15T09:27:43;18.13;;;9.38;;
11123;SDS011;5616;42.692;23.312;2024-02-15T09:30:10;19.38;;;8.38;;
11123;SDS011;5616;42.692;23.312;2024-02-15T09:32:38;17.90;;;8.25;;
11123;SDS011;5616;42.692;23.312;2024-02-15T09:35:04;13.10;;;7.65;;
11123;SDS011;5616;42.692;23.312;2024-02-15T09:37:37;12.73;;;7.43;;
11123;SDS011;5616;42.692;23.312;2024-02-15T09:40:07;16.77;;;8.65;;
11123;SDS011;5616;42.692;23.312;2024-02-15T09:42:35;16.13;;;7.82;;
11123;SDS011;5616;42.692;23.312;2024-02-15T09:45:04;12.52;;;7.72;;
11123;SDS011;5616;42.692;23.312;2024-02-15T09:47:33;11.90;;;6.82;;
11123;SDS011;5616;42.692;23.312;2024-02-15T09:50:01;13.93;;;7.50;;
11123;SDS011;5616;42.692;23.312;2024-02-15T09:52:49;18.05;;;7.03;;
11123;SDS011;5616;42.692;23.312;2024-02-15T09:55:19;13.38;;;7.88;;
11123;SDS011;5616;42.692;23.312;2024-02-15T09:57:48;17.90;;;6.70;;
11123;SDS011;5616;42.692;23.312;2024-02-15T10:00:15;14.35;;;7.95;;
11123;SDS011;5616;42.692;23.312;2024-02-15T10:02:42;14.73;;;7.72;;
11123;SDS011;5616;42.692;23.312;2024-02-15T10:05:09;15.38;;;7.75;;
11123;SDS011;5616;42.692;23.312;2024-02-15T10:07:39;15.82;;;7.07;;
11123;SDS011;5616;42.692;23.312;2024-02-15T10:10:17;14.25;;;7.50;;
11123;SDS011;5616;42.692;23.312;2024-02-15T10:12:45;20.73;;;8.10;;
11123;SDS011;5616;42.692;23.312;2024-02-15T10:18:00;16.05;;;8.13;;
11123;SDS011;5616;42.692;23.312;2024-02-15T10:20:27;14.05;;;7.53;;
11123;SDS011;5616;42.692;23.312;2024-02-15T10:25:25;16.35;;;7.90;;
11123;SDS011;5616;42.692;23.312;2024-02-15T10:28:05;14.00;;;7.30;;
11123;SDS011;5616;42.692;23.312;2024-02-15T10:30:33;9.63;;;6.68;;
11123;SDS011;5616;42.692;23.312;2024-02-15T10:33:00;14.73;;;6.93;;
11123;SDS011;5616;42.692;23.312;2024-02-15T10:35:26;14.98;;;6.97;;
11123;SDS011;5616;42.692;23.312;2024-02-15T10:37:54;14.10;;;7.20;;
11123;SDS011;5616;42.692;23.312;2024-02-15T10:40:30;8.77;;;6.22;;
11123;SDS011;5616;42.692;23.312;2024-02-15T10:42:56;15.00;;;8.38;;
11123;SDS011;5616;42.692;23.312;2024-02-15T10:45:24;26.67;;;7.95;;
11123;SDS011;5616;42.692;23.312;2024-02-15T10:50:17;14.10;;;6.78;;
11123;SDS011;5616;42.692;23.312;2024-02-15T10:52:55;11.80;;;7.05;;
11123;SDS011;5616;42.692;23.312;2024-02-15T10:55:25;13.73;;;7.78;;
11123;SDS011;5616;42.692;23.312;2024-02-15T10:58:05;11.73;;;6.40;;
11123;SDS011;5616;42.692;23.312;2024-02-15T11:00:34;12.93;;;6.45;;
11123;SDS011;5616;42.692;23.312;2024-02-15T11:03:04;10.95;;;6.55;;
11123;SDS011;5616;42.692;23.312;2024-02-15T11:05:36;9.60;;;6.38;;
11123;SDS011;5616;42.692;23.312;2024-02-15T11:08:03;13.45;;;6.55;;
11123;SDS011;5616;42.692;23.312;2024-02-15T11:10:31;15.00;;;6.68;;
11123;SDS011;5616;42.692;23.312;2024-02-15T11:12:58;9.88;;;5.72;;
11123;SDS011;5616;42.692;23.312;2024-02-15T11:18:07;11.25;;;6.07;;
11123;SDS011;5616;42.692;23.312;2024-02-15T11:22:59;11.95;;;6.47;;
11123;SDS011;5616;42.692;23.312;2024-02-15T11:25:33;13.05;;;6.70;;
11123;SDS011;5616;42.692;23.312;2024-02-15T11:30:47;11.45;;;6.30;;
11123;SDS011;5616;42.692;23.312;2024-02-15T11:33:29;9.85;;;6.68;;
11123;SDS011;5616;42.692;23.312;2024-02-15T11:36:01;14.23;;;6.63;;
11123;SDS011;5616;42.692;23.312;2024-02-15T11:38:37;13.95;;;6.82;;
11123;SDS011;5616;42.692;23.312;2024-02-15T11:41:08;12.05;;;6.68;;
11123;SDS011;5616;42.692;23.312;2024-02-15T11:46:15;15.68;;;8.10;;
11123;SDS011;5616;42.692;23.312;2024-02-15T11:48:45;12.32;;;6.93;;
11123;SDS011;5616;42.692;23.312;2024-02-15T11:54:01;14.20;;;7.78;;
11123;SDS011;5616;42.692;23.312;2024-02-15T11:56:52;14.43;;;7.57;;
11123;SDS011;5616;42.692;23.312;2024-02-15T11:59:30;13.48;;;6.88;;
11123;SDS011;5616;42.692;23.312;2024-02-15T12:02:08;16.70;;;7.55;;
11123;SDS011;5616;42.692;23.312;2024-02-15T12:04:51;14.93;;;7.00;;
11123;SDS011;5616;42.692;23.312;2024-02-15T12:07:36;15.10;;;7.63;;
11123;SDS011;5616;42.692;23.312;2024-02-15T12:10:20;14.38;;;7.40;;
11123;SDS011;5616;42.692;23.312;2024-02-15T12:13:04;15.10;;;6.75;;
11123;SDS011;5616;42.692;23.312;2024-02-15T12:15:56;13.07;;;6.90;;
11123;SDS011;5616;42.692;23.312;2024-02-15T12:18:43;10.35;;;6.50;;
11123;SDS011;5616;42.692;23.312;2024-02-15T12:21:12;11.68;;;6.93;;
11123;SDS011;5616;42.692;23.312;2024-02-15T12:23:42;10.85;;;6.70;;
11123;SDS011;5616;42.692;23.312;2024-02-15T12:26:08;10.07;;;5.60;;
11123;SDS011;5616;42.692;23.312;2024-02-15T12:28:34;12.93;;;6.63;;
11123;SDS011;5616;42.692;23.312;2024-02-15T12:31:00;15.75;;;8.88;;
11123;SDS011;5616;42.692;23.312;2024-02-15T12:33:27;12.45;;;7.47;;
11123;SDS011;5616;42.692;23.312;2024-02-15T12:36:03;13.32;;;7.53;;
11123;SDS011;5616;42.692;23.312;2024-02-15T12:38:30;16.42;;;6.65;;
11123;SDS011;5616;42.692;23.312;2024-02-15T12:40:56;12.15;;;6.90;;
11123;SDS011;5616;42.692;23.312;2024-02-15T12:43:22;13.30;;;6.55;;
11123;SDS011;5616;42.692;23.312;2024-02-15T12:45:47;14.70;;;7.03;;
11123;SDS011;5616;42.692;23.312;2024-02-15T12:48:13;12.30;;;6.43;;
11123;SDS011;5616;42.692;23.312;2024-02-15T12:50:40;14.23;;;7.32;;
11123;SDS011;5616;42.692;23.312;2024-02-15T12:53:06;13.77;;;7.15;;
11123;SDS011;5616;42.692;23.312;2024-02-15T12:55:33;12.02;;;6.25;;
11123;SDS011;5616;42.692;23.312;2024-02-15T12:58:06;12.18;;;7.10;;
11123;SDS011;5616;42.692;23.312;2024-02-15T13:00:40;15.05;;;7.15;;
11123;SDS011;5616;42.692;23.312;2024-02-15T13:03:06;12.07;;;6.82;;
11123;SDS011;5616;42.692;23.312;2024-02-15T13:05:36;12.00;;;6.20;;
11123;SDS011;5616;42.692;23.312;2024-02-15T13:08:02;13.27;;;6.85;;
11123;SDS011;5616;42.692;23.312;2024-02-15T13:10:29;11.48;;;6.65;;
11123;SDS011;5616;42.692;23.312;2024-02-15T13:12:55;13.75;;;6.57;;
11123;SDS011;5616;42.692;23.312;2024-02-15T13:15:21;14.82;;;7.05;;
11123;SDS011;5616;42.692;23.312;2024-02-15T13:17:52;10.45;;;6.45;;
11123;SDS011;5616;42.692;23.312;2024-02-15T13:20:21;15.10;;;6.75;;
11123;SDS011;5616;42.692;23.312;2024-02-15T13:22:57;12.63;;;6.47;;
11123;SDS011;5616;42.692;23.312;2024-02-15T13:25:25;11.13;;;6.95;;
11123;SDS011;5616;42.692;23.312;2024-02-15T13:27:51;13.43;;;7.97;;
11123;SDS011;5616;42.692;23.312;2024-02-15T13:30:17;12.48;;;7.22;;
11123;SDS011;5616;42.692;23.312;2024-02-15T13:32:48;13.10;;;6.38;;
11123;SDS011;5616;42.692;23.312;2024-02-15T13:35:16;12.70;;;8.02;;
11123;SDS011;5616;42.692;23.312;2024-02-15T13:37:48;14.10;;;7.18;;
11123;SDS011;5616;42.692;23.312;2024-02-15T13:40:17;12.18;;;6.75;;
11123;SDS011;5616;42.692;23.312;2024-02-15T13:42:45;13.35;;;6.75;;
11123;SDS011;5616;42.692;23.312;2024-02-15T13:48:05;10.93;;;7.65;;
11123;SDS011;5616;42.692;23.312;2024-02-15T13:50:34;12.27;;;7.20;;
11123;SDS011;5616;42.692;23.312;2024-02-15T13:53:00;12.07;;;6.78;;
11123;SDS011;5616;42.692;23.312;2024-02-15T13:55:29;11.02;;;6.45;;
11123;SDS011;5616;42.692;23.312;2024-02-15T13:57:56;10.00;;;7.03;;
11123;SDS011;5616;42.692;23.312;2024-02-15T14:00:22;8.40;;;6.45;;
11123;SDS011;5616;42.692;23.312;2024-02-15T14:05:14;8.82;;;6.68;;
11123;SDS011;5616;42.692;23.312;2024-02-15T14:07:41;12.13;;;6.57;;
11123;SDS011;5616;42.692;23.312;2024-02-15T14:10:06;8.15;;;5.38;;
11123;SDS011;5616;42.692;23.312;2024-02-15T14:12:33;9.77;;;6.15;;
11123;SDS011;5616;42.692;23.312;2024-02-15T14:14:59;12.88;;;6.15;;
11123;SDS011;5616;42.692;23.312;2024-02-15T14:17:25;11.20;;;7.38;;
11123;SDS011;5616;42.692;23.312;2024-02-15T14:19:51;15.23;;;6.72;;
11123;SDS011;5616;42.692;23.312;2024-02-15T14:22:16;12.45;;;6.40;;
11123;SDS011;5616;42.692;23.312;2024-02-15T14:24:42;9.43;;;6.03;;
11123;SDS011;5616;42.692;23.312;2024-02-15T14:27:09;16.95;;;6.55;;
11123;SDS011;5616;42.692;23.312;2024-02-15T14:29:36;16.55;;;7.15;;
11123;SDS011;5616;42.692;23.312;2024-02-15T14:32:24;15.27;;;6.82;;
11123;SDS011;5616;42.692;23.312;2024-02-15T14:35:08;14.23;;;6.43;;
11123;SDS011;5616;42.692;23.312;2024-02-15T14:37:33;12.30;;;6.70;;
11123;SDS011;5616;42.692;23.312;2024-02-15T14:39:59;11.07;;;6.80;;
11123;SDS011;5616;42.692;23.312;2024-02-15T14:42:24;14.68;;;7.18;;
11123;SDS011;5616;42.692;23.312;2024-02-15T14:44:50;15.35;;;6.82;;
11123;SDS011;5616;42.692;23.312;2024-02-15T14:47:15;11.20;;;7.53;;
11123;SDS011;5616;42.692;23.312;2024-02-15T14:49:40;13.20;;;7.78;;
11123;SDS011;5616;42.692;23.312;2024-02-15T14:52:06;17.30;;;9.05;;
11123;SDS011;5616;42.692;23.312;2024-02-15T14:56:58;13.82;;;7.28;;
11123;SDS011;5616;42.692;23.312;2024-02-15T14:59:24;13.65;;;7.28;;
11123;SDS011;5616;42.692;23.312;2024-02-15T15:01:50;14.30;;;7.97;;
11123;SDS011;5616;42.692;23.312;2024-02-15T15:04:15;15.90;;;6.82;;
11123;SDS011;5616;42.692;23.312;2024-02-15T15:06:44;13.02;;;7.57;;
11123;SDS011;5616;42.692;23.312;2024-02-15T15:09:28;11.15;;;7.32;;
11123;SDS011;5616;42.692;23.312;2024-02-15T15:12:12;12.52;;;6.85;;
11123;SDS011;5616;42.692;23.312;2024-02-15T15:14:56;12.85;;;6.85;;
11123;SDS011;5616;42.692;23.312;2024-02-15T15:17:21;12.15;;;6.32;;
11123;SDS011;5616;42.692;23.312;2024-02-15T15:19:46;12.18;;;7.03;;